createdAt,value
2019-05-06T00:00:13.863Z,7.49
2019-05-06T00:01:12.085Z,7.63
2019-05-06T00:02:13.793Z,7.64
2019-05-06T00:03:13.882Z,7.58
2019-05-06T00:04:14.009Z,7.55
2019-05-06T00:05:14.279Z,7.57
2019-05-06T00:06:14.406Z,7.60
2019-05-06T00:07:13.792Z,7.52
2019-05-06T00:08:14.348Z,7.48
2019-05-06T00:09:14.585Z,7.45
2019-05-06T00:10:13.435Z,7.46
2019-05-06T00:11:14.188Z,7.46
2019-05-06T00:12:14.380Z,7.53
2019-05-06T00:13:14.023Z,7.57
2019-05-06T00:14:14.147Z,7.45
2019-05-06T00:15:14.453Z,7.45
2019-05-06T00:16:14.378Z,7.43
2019-05-06T00:17:14.535Z,7.48
2019-05-06T00:18:13.832Z,7.39
2019-05-06T00:19:13.935Z,7.45
2019-05-06T00:20:14.713Z,7.35
2019-05-06T00:21:14.759Z,7.32
2019-05-06T00:22:14.207Z,7.40
2019-05-06T00:23:14.264Z,7.52
2019-05-06T00:24:14.542Z,7.48
2019-05-06T00:25:14.030Z,7.50
2019-05-06T00:26:13.636Z,7.49
2019-05-06T00:27:14.123Z,7.50
2019-05-06T00:28:13.679Z,7.45
2019-05-06T00:29:13.985Z,7.34
2019-05-06T00:30:14.925Z,7.39
2019-05-06T00:31:16.008Z,7.35
2019-05-06T00:32:15.049Z,7.43
2019-05-06T00:33:13.640Z,7.39
2019-05-06T00:34:13.844Z,7.32
2019-05-06T00:35:14.227Z,7.31
2019-05-06T00:36:14.128Z,7.27
2019-05-06T00:37:14.649Z,7.25
2019-05-06T00:38:13.965Z,7.16
2019-05-06T00:39:14.916Z,7.17
2019-05-06T00:40:14.113Z,7.21
2019-05-06T00:41:14.436Z,7.12
2019-05-06T00:42:13.967Z,7.03
2019-05-06T00:43:14.068Z,6.95
2019-05-06T00:44:14.357Z,6.92
2019-05-06T00:45:13.766Z,6.92
2019-05-06T00:46:13.942Z,6.89
2019-05-06T00:47:13.841Z,6.80
2019-05-06T00:48:14.047Z,6.79
2019-05-06T00:49:14.369Z,6.74
2019-05-06T00:50:14.324Z,6.73
2019-05-06T00:51:13.992Z,6.62
2019-05-06T00:52:14.033Z,6.61
2019-05-06T00:53:14.213Z,6.64
2019-05-06T00:54:14.423Z,6.59
2019-05-06T00:55:14.152Z,6.58
2019-05-06T00:56:14.183Z,6.66
2019-05-06T00:57:14.220Z,6.61
2019-05-06T00:58:14.318Z,6.59
2019-05-06T00:59:14.479Z,6.58
2019-05-06T01:00:14.333Z,6.48
2019-05-06T01:01:25.836Z,6.41
2019-05-06T01:02:14.410Z,6.31
2019-05-06T01:03:14.446Z,6.40
2019-05-06T01:04:14.485Z,6.34
2019-05-06T01:05:14.524Z,6.21
2019-05-06T01:06:14.560Z,6.21
2019-05-06T01:07:14.602Z,6.18
2019-05-06T01:08:14.636Z,6.11
2019-05-06T01:09:14.679Z,6.12
2019-05-06T01:10:14.713Z,6.01
2019-05-06T01:11:14.750Z,6.06
2019-05-06T01:12:14.788Z,6.12
2019-05-06T01:13:14.827Z,6.04
2019-05-06T01:14:14.910Z,5.96
2019-05-06T01:15:14.904Z,6.03
2019-05-06T01:16:15.729Z,5.93
2019-05-06T01:17:14.982Z,5.93
2019-05-06T01:18:15.017Z,5.86
2019-05-06T01:19:15.052Z,5.85
2019-05-06T01:20:15.091Z,5.78
2019-05-06T01:21:15.128Z,5.72
2019-05-06T01:22:15.173Z,5.65
2019-05-06T01:23:15.205Z,5.63
2019-05-06T01:24:15.240Z,5.57
2019-05-06T01:25:15.286Z,5.58
2019-05-06T01:26:15.370Z,5.57
2019-05-06T01:27:15.353Z,5.46
2019-05-06T01:28:15.392Z,5.54
2019-05-06T01:29:15.449Z,5.56
2019-05-06T01:30:15.466Z,5.58
2019-05-06T01:31:15.531Z,5.57
2019-05-06T01:32:15.540Z,5.53
2019-05-06T01:33:15.586Z,5.48
2019-05-06T01:34:15.616Z,5.38
2019-05-06T01:35:15.654Z,5.40
2019-05-06T01:36:15.691Z,5.46
2019-05-06T01:37:15.736Z,5.45
2019-05-06T01:38:15.767Z,5.42
2019-05-06T01:39:15.803Z,5.38
2019-05-06T01:40:15.841Z,5.38
2019-05-06T01:41:15.878Z,5.40
2019-05-06T01:42:15.915Z,5.42
2019-05-06T01:43:15.954Z,5.42
2019-05-06T01:44:15.989Z,5.39
2019-05-06T01:45:16.031Z,5.36
2019-05-06T01:46:16.066Z,5.40
2019-05-06T01:47:16.109Z,5.35
2019-05-06T01:48:16.140Z,5.40
2019-05-06T01:49:16.181Z,5.35
2019-05-06T01:50:16.216Z,5.42
2019-05-06T01:51:16.251Z,5.36
2019-05-06T01:52:16.290Z,5.33
2019-05-06T01:53:16.377Z,5.30
2019-05-06T01:54:16.364Z,5.22
2019-05-06T01:55:16.401Z,5.18
2019-05-06T01:56:16.438Z,5.28
2019-05-06T01:57:16.490Z,5.22
2019-05-06T01:58:16.514Z,5.18
2019-05-06T01:59:16.550Z,5.15
2019-05-06T02:00:16.687Z,5.24
2019-05-06T02:01:16.623Z,5.13
2019-05-06T02:02:16.662Z,5.12
2019-05-06T02:03:16.700Z,5.09
2019-05-06T02:04:16.736Z,5.06
2019-05-06T02:05:16.772Z,5.06
2019-05-06T02:06:16.821Z,5.02
2019-05-06T02:07:16.847Z,4.99
2019-05-06T02:08:16.883Z,5.03
2019-05-06T02:09:16.922Z,4.99
2019-05-06T02:10:16.965Z,5.00
2019-05-06T02:11:16.996Z,5.04
2019-05-06T02:12:17.033Z,4.94
2019-05-06T02:13:17.069Z,4.88
2019-05-06T02:14:17.118Z,4.86
2019-05-06T02:15:17.143Z,4.84
2019-05-06T02:16:17.183Z,4.78
2019-05-06T02:17:17.222Z,4.78
2019-05-06T02:18:17.254Z,4.78
2019-05-06T02:19:17.290Z,4.67
2019-05-06T02:20:17.328Z,4.80
2019-05-06T02:21:17.369Z,4.69
2019-05-06T02:22:17.406Z,4.66
2019-05-06T02:23:17.439Z,4.59
2019-05-06T02:24:17.480Z,4.69
2019-05-06T02:25:17.514Z,4.60
2019-05-06T02:26:17.553Z,4.59
2019-05-06T02:27:17.589Z,4.58
2019-05-06T02:28:17.623Z,4.54
2019-05-06T02:29:17.667Z,4.54
2019-05-06T02:30:17.699Z,4.51
2019-05-06T02:31:17.738Z,4.47
2019-05-06T02:32:26.092Z,4.51
2019-05-06T02:33:17.819Z,4.50
2019-05-06T02:34:17.847Z,4.41
2019-05-06T02:35:17.890Z,4.41
2019-05-06T02:36:17.925Z,4.41
2019-05-06T02:37:17.957Z,4.41
2019-05-06T02:38:17.994Z,4.44
2019-05-06T02:39:18.030Z,4.34
2019-05-06T02:40:18.066Z,4.30
2019-05-06T02:41:18.105Z,4.27
2019-05-06T02:42:18.142Z,4.29
2019-05-06T02:43:18.180Z,4.30
2019-05-06T02:44:18.213Z,4.32
2019-05-06T02:45:18.252Z,4.24
2019-05-06T02:46:18.288Z,4.11
2019-05-06T02:47:18.328Z,4.11
2019-05-06T02:48:18.363Z,4.04
2019-05-06T02:49:18.398Z,3.98
2019-05-06T02:50:18.437Z,3.93
2019-05-06T02:51:18.481Z,3.91
2019-05-06T02:52:18.513Z,3.78
2019-05-06T02:53:18.545Z,3.84
2019-05-06T02:54:18.589Z,3.87
2019-05-06T02:55:18.618Z,3.86
2019-05-06T02:56:18.664Z,3.83
2019-05-06T02:57:18.690Z,3.72
2019-05-06T02:58:18.730Z,3.73
2019-05-06T02:59:18.763Z,3.66
2019-05-06T03:00:18.806Z,3.54
2019-05-06T03:01:18.836Z,3.55
2019-05-06T03:02:37.593Z,3.54
2019-05-06T03:03:18.907Z,3.54
2019-05-06T03:04:18.947Z,3.51
2019-05-06T03:05:18.991Z,3.47
2019-05-06T03:06:19.022Z,3.43
2019-05-06T03:07:19.058Z,3.40
2019-05-06T03:08:19.090Z,3.36
2019-05-06T03:09:19.137Z,3.39
2019-05-06T03:10:19.165Z,3.31
2019-05-06T03:11:19.201Z,3.42
2019-05-06T03:12:19.238Z,3.42
2019-05-06T03:13:19.278Z,3.36
2019-05-06T03:14:19.309Z,3.40
2019-05-06T03:15:19.346Z,3.32
2019-05-06T03:16:19.384Z,3.40
2019-05-06T03:17:19.426Z,3.33
2019-05-06T03:18:19.457Z,3.43
2019-05-06T03:19:19.502Z,3.28
2019-05-06T03:20:19.529Z,3.35
2019-05-06T03:21:19.567Z,3.33
2019-05-06T03:22:19.609Z,3.39
2019-05-06T03:23:19.638Z,3.36
2019-05-06T03:24:19.676Z,3.39
2019-05-06T03:25:19.712Z,3.42
2019-05-06T03:26:19.749Z,3.45
2019-05-06T03:27:19.790Z,3.58
2019-05-06T03:28:22.440Z,3.54
2019-05-06T03:29:19.857Z,3.57
2019-05-06T03:30:25.047Z,3.66
2019-05-06T03:31:25.346Z,3.52
2019-05-06T03:32:24.707Z,3.70
2019-05-06T03:33:45.041Z,3.58
2019-05-06T03:34:43.038Z,3.65
2019-05-06T03:35:40.324Z,3.68
2019-05-06T03:36:27.680Z,3.66
2019-05-06T03:37:20.148Z,3.66
2019-05-06T03:38:22.691Z,3.68
2019-05-06T03:39:23.102Z,3.66
2019-05-06T03:40:22.903Z,3.66
2019-05-06T03:41:23.358Z,3.73
2019-05-06T03:42:22.971Z,3.73
2019-05-06T03:43:23.111Z,3.80
2019-05-06T03:44:23.631Z,3.69
2019-05-06T03:45:20.439Z,3.79
2019-05-06T03:46:23.111Z,3.78
2019-05-06T03:47:23.272Z,3.76
2019-05-06T03:48:23.785Z,3.86
2019-05-06T03:49:20.591Z,3.80
2019-05-06T03:50:23.797Z,3.79
2019-05-06T03:51:23.369Z,3.80
2019-05-06T03:52:23.332Z,3.79
2019-05-06T03:53:23.194Z,3.84
2019-05-06T03:54:23.195Z,3.83
2019-05-06T03:55:23.448Z,3.84
2019-05-06T03:56:23.614Z,3.88
2019-05-06T03:57:23.163Z,3.93
2019-05-06T03:58:26.314Z,3.96
2019-05-06T03:59:23.295Z,3.93
2019-05-06T04:00:23.706Z,3.97
2019-05-06T04:01:23.629Z,4.05
2019-05-06T04:02:23.776Z,4.02
2019-05-06T04:03:28.316Z,4.05
2019-05-06T04:04:23.384Z,4.11
2019-05-06T04:05:23.893Z,4.12
2019-05-06T04:06:23.893Z,4.26
2019-05-06T04:07:23.433Z,4.27
2019-05-06T04:08:23.949Z,4.29
2019-05-06T04:09:24.070Z,4.40
2019-05-06T04:10:22.885Z,4.44
2019-05-06T04:11:22.874Z,4.41
2019-05-06T04:12:23.345Z,4.42
2019-05-06T04:13:23.200Z,4.42
2019-05-06T04:14:23.842Z,4.42
2019-05-06T04:15:23.442Z,4.37
2019-05-06T04:16:23.163Z,4.48
2019-05-06T04:17:23.775Z,4.52
2019-05-06T04:18:23.816Z,4.50
2019-05-06T04:19:23.678Z,4.54
2019-05-06T04:20:23.577Z,4.54
2019-05-06T04:21:24.066Z,4.52
2019-05-06T04:22:23.563Z,4.55
2019-05-06T04:23:23.489Z,4.54
2019-05-06T04:24:22.893Z,4.52
2019-05-06T04:25:23.278Z,4.51
2019-05-06T04:26:23.972Z,4.65
2019-05-06T04:27:22.837Z,4.54
2019-05-06T04:28:23.847Z,4.60
2019-05-06T04:29:24.077Z,4.66
2019-05-06T04:30:24.262Z,4.66
2019-05-06T04:31:22.881Z,4.69
2019-05-06T04:32:23.373Z,4.66
2019-05-06T04:33:23.659Z,4.62
2019-05-06T04:34:23.360Z,4.65
2019-05-06T04:35:22.999Z,4.67
2019-05-06T04:36:23.868Z,4.54
2019-05-06T04:37:24.125Z,4.63
2019-05-06T04:38:23.527Z,4.55
2019-05-06T04:39:23.461Z,4.55
2019-05-06T04:40:23.858Z,4.52
2019-05-06T04:41:23.152Z,4.55
2019-05-06T04:42:23.334Z,4.44
2019-05-06T04:43:23.511Z,4.42
2019-05-06T04:44:23.709Z,4.40
2019-05-06T04:45:23.684Z,4.45
2019-05-06T04:46:23.693Z,4.40
2019-05-06T04:47:24.113Z,4.37
2019-05-06T04:48:23.901Z,4.41
2019-05-06T04:49:23.692Z,4.44
2019-05-06T04:50:24.194Z,4.34
2019-05-06T04:51:24.820Z,4.36
2019-05-06T04:52:25.930Z,4.34
2019-05-06T04:53:23.822Z,4.24
2019-05-06T04:54:26.169Z,4.32
2019-05-06T04:55:23.018Z,4.40
2019-05-06T04:56:23.754Z,4.37
2019-05-06T04:57:24.033Z,4.36
2019-05-06T04:58:23.577Z,4.48
2019-05-06T04:59:23.407Z,4.40
2019-05-06T05:00:23.443Z,4.34
2019-05-06T05:01:23.474Z,4.36
2019-05-06T05:02:23.265Z,4.41
2019-05-06T05:03:23.300Z,4.41
2019-05-06T05:04:31.752Z,4.33
2019-05-06T05:05:23.381Z,4.36
2019-05-06T05:06:23.413Z,4.41
2019-05-06T05:07:23.450Z,4.45
2019-05-06T05:08:23.490Z,4.44
2019-05-06T05:09:23.528Z,4.45
2019-05-06T05:10:23.561Z,4.55
2019-05-06T05:11:23.597Z,4.45
2019-05-06T05:12:23.634Z,4.40
2019-05-06T05:13:23.668Z,4.42
2019-05-06T05:14:25.877Z,4.51
2019-05-06T05:15:23.740Z,4.55
2019-05-06T05:16:23.790Z,4.62
2019-05-06T05:17:23.815Z,4.59
2019-05-06T05:18:23.857Z,4.67
2019-05-06T05:19:23.896Z,4.73
2019-05-06T05:20:36.866Z,4.78
2019-05-06T05:21:23.962Z,4.99
2019-05-06T05:22:24.007Z,5.10
2019-05-06T05:23:24.044Z,5.33
2019-05-06T05:24:24.073Z,5.30
2019-05-06T05:25:24.126Z,5.36
2019-05-06T05:26:24.148Z,5.45
2019-05-06T05:27:24.183Z,5.48
2019-05-06T05:28:24.221Z,5.48
2019-05-06T05:29:24.258Z,5.53
2019-05-06T05:30:24.294Z,5.67
2019-05-06T05:31:24.350Z,5.65
2019-05-06T05:32:26.817Z,5.71
2019-05-06T05:33:24.417Z,5.75
2019-05-06T05:34:37.109Z,5.83
2019-05-06T05:35:24.479Z,5.90
2019-05-06T05:36:24.518Z,5.96
2019-05-06T05:37:24.572Z,6.01
2019-05-06T05:38:24.596Z,6.08
2019-05-06T05:39:24.630Z,6.09
2019-05-06T05:40:24.667Z,6.25
2019-05-06T05:41:24.705Z,6.41
2019-05-06T05:42:24.742Z,6.38
2019-05-06T05:43:24.778Z,6.49
2019-05-06T05:44:24.826Z,6.49
2019-05-06T05:45:24.854Z,6.61
2019-05-06T05:46:24.943Z,6.70
2019-05-06T05:47:24.928Z,6.79
2019-05-06T05:48:24.966Z,6.87
2019-05-06T05:49:25.008Z,6.81
2019-05-06T05:50:25.041Z,6.92
2019-05-06T05:51:25.078Z,6.92
2019-05-06T05:52:25.129Z,6.97
2019-05-06T05:53:25.154Z,7.12
2019-05-06T05:54:25.191Z,7.23
2019-05-06T05:55:25.231Z,7.31
2019-05-06T05:56:25.270Z,7.32
2019-05-06T05:57:25.307Z,7.37
2019-05-06T05:58:25.353Z,7.39
2019-05-06T05:59:25.382Z,7.43
2019-05-06T06:00:25.480Z,7.58
2019-05-06T06:01:25.472Z,7.63
2019-05-06T06:02:25.503Z,7.63
2019-05-06T06:03:25.540Z,7.75
2019-05-06T06:04:25.572Z,7.85
2019-05-06T06:05:25.613Z,7.85
2019-05-06T06:06:25.652Z,7.89
2019-05-06T06:07:25.687Z,7.97
2019-05-06T06:08:25.727Z,8.11
2019-05-06T06:09:25.763Z,8.15
2019-05-06T06:10:25.804Z,8.30
2019-05-06T06:11:25.841Z,8.48
2019-05-06T06:12:25.878Z,8.61
2019-05-06T06:13:25.917Z,8.74
2019-05-06T06:14:25.971Z,8.86
2019-05-06T06:15:25.993Z,8.98
2019-05-06T06:16:26.047Z,9.05
2019-05-06T06:17:26.078Z,9.15
2019-05-06T06:18:26.108Z,9.11
2019-05-06T06:19:26.147Z,9.31
2019-05-06T06:20:26.188Z,9.33
2019-05-06T06:21:28.190Z,9.38
2019-05-06T06:22:26.264Z,9.53
2019-05-06T06:23:26.305Z,9.48
2019-05-06T06:24:26.346Z,9.47
2019-05-06T06:25:26.390Z,9.71
2019-05-06T06:26:26.421Z,9.84
2019-05-06T06:27:26.458Z,9.78
2019-05-06T06:28:26.496Z,9.87
2019-05-06T06:29:26.546Z,9.91
2019-05-06T06:30:26.606Z,9.93
2019-05-06T06:31:26.627Z,9.94
2019-05-06T06:32:26.686Z,10.09
2019-05-06T06:33:26.701Z,10.09
2019-05-06T06:34:26.734Z,10.14
2019-05-06T06:35:26.776Z,10.23
2019-05-06T06:36:26.859Z,10.29
2019-05-06T06:37:26.912Z,10.32
2019-05-06T06:38:26.953Z,10.32
2019-05-06T06:39:26.980Z,10.38
2019-05-06T06:40:26.979Z,10.40
2019-05-06T06:41:27.013Z,10.55
2019-05-06T06:42:27.052Z,10.38
2019-05-06T06:43:27.194Z,10.48
2019-05-06T06:44:27.142Z,10.45
2019-05-06T06:45:27.178Z,10.41
2019-05-06T06:46:27.216Z,10.40
2019-05-06T06:47:27.253Z,10.53
2019-05-06T06:48:27.983Z,10.64
2019-05-06T06:49:27.333Z,10.66
2019-05-06T06:50:27.377Z,10.64
2019-05-06T06:51:27.414Z,10.60
2019-05-06T06:52:27.451Z,10.60
2019-05-06T06:53:27.494Z,10.51
2019-05-06T06:54:27.531Z,10.44
2019-05-06T06:55:27.571Z,10.40
2019-05-06T06:56:27.612Z,10.40
2019-05-06T06:57:27.653Z,10.34
2019-05-06T06:58:27.692Z,10.33
2019-05-06T06:59:27.732Z,10.15
2019-05-06T07:00:27.776Z,10.15
2019-05-06T07:01:27.824Z,10.11
2019-05-06T07:02:27.856Z,9.89
2019-05-06T07:03:27.892Z,9.89
2019-05-06T07:04:27.933Z,9.81
2019-05-06T07:05:28.450Z,9.75
2019-05-06T07:06:28.039Z,9.72
2019-05-06T07:07:40.355Z,9.75
2019-05-06T07:08:34.881Z,9.84
2019-05-06T07:09:29.695Z,9.93
2019-05-06T07:10:28.177Z,9.97
2019-05-06T07:11:28.212Z,10.09
2019-05-06T07:12:28.281Z,10.07
2019-05-06T07:13:28.304Z,10.18
2019-05-06T07:14:28.334Z,10.18
2019-05-06T07:15:28.387Z,10.17
2019-05-06T07:16:28.414Z,10.22
2019-05-06T07:17:28.461Z,10.42
2019-05-06T07:18:28.494Z,10.60
2019-05-06T07:19:28.542Z,10.74
2019-05-06T07:20:28.572Z,10.81
2019-05-06T07:21:29.051Z,10.74
2019-05-06T07:22:28.655Z,10.81
2019-05-06T07:23:28.694Z,10.63
2019-05-06T07:24:28.733Z,10.68
2019-05-06T07:25:28.777Z,10.78
2019-05-06T07:26:28.815Z,10.79
2019-05-06T07:27:28.857Z,10.79
2019-05-06T07:28:28.897Z,10.82
2019-05-06T07:29:28.942Z,10.88
2019-05-06T07:30:28.977Z,10.91
2019-05-06T07:31:29.020Z,11.15
2019-05-06T07:32:29.058Z,11.07
2019-05-06T07:33:29.098Z,11.09
2019-05-06T07:34:29.140Z,11.17
2019-05-06T07:35:38.532Z,11.25
2019-05-06T07:36:29.219Z,11.42
2019-05-06T07:37:29.266Z,11.52
2019-05-06T07:38:29.304Z,11.73
2019-05-06T07:39:29.341Z,11.75
2019-05-06T07:40:29.385Z,11.67
2019-05-06T07:41:29.426Z,11.62
2019-05-06T07:42:29.470Z,11.61
2019-05-06T07:43:29.504Z,11.65
2019-05-06T07:44:29.547Z,11.80
2019-05-06T07:45:29.596Z,11.78
2019-05-06T07:46:29.629Z,11.75
2019-05-06T07:47:29.668Z,11.65
2019-05-06T07:48:31.883Z,11.67
2019-05-06T07:49:29.751Z,11.60
2019-05-06T07:50:29.792Z,11.73
2019-05-06T07:51:29.837Z,11.85
2019-05-06T07:52:29.874Z,11.96
2019-05-06T07:53:31.997Z,11.75
2019-05-06T07:54:29.965Z,11.96
2019-05-06T07:55:30.010Z,11.86
2019-05-06T07:56:32.064Z,11.73
2019-05-06T07:57:30.081Z,11.72
2019-05-06T07:58:32.136Z,11.69
2019-05-06T07:59:30.163Z,11.64
2019-05-06T08:00:32.558Z,11.62
2019-05-06T08:01:30.246Z,11.47
2019-05-06T08:02:32.093Z,11.42
2019-05-06T08:03:32.810Z,11.52
2019-05-06T08:04:32.317Z,11.64
2019-05-06T08:05:32.406Z,11.61
2019-05-06T08:06:32.134Z,11.67
2019-05-06T08:07:33.115Z,11.73
2019-05-06T08:08:32.869Z,11.75
2019-05-06T08:09:32.589Z,11.75
2019-05-06T08:10:32.931Z,11.94
2019-05-06T08:11:32.844Z,11.98
2019-05-06T08:12:32.642Z,11.90
2019-05-06T08:13:32.304Z,11.85
2019-05-06T08:14:32.915Z,12.02
2019-05-06T08:15:32.586Z,11.86
2019-05-06T08:16:31.910Z,11.70
2019-05-06T08:17:32.995Z,11.94
2019-05-06T08:18:32.970Z,11.88
2019-05-06T08:19:33.380Z,11.83
2019-05-06T08:20:32.476Z,11.90
2019-05-06T08:21:32.644Z,11.90
2019-05-06T08:22:33.282Z,12.13
2019-05-06T08:23:32.552Z,12.32
2019-05-06T08:24:33.226Z,12.32
2019-05-06T08:25:32.932Z,12.28
2019-05-06T08:26:32.288Z,12.37
2019-05-06T08:27:32.921Z,12.39
2019-05-06T08:28:40.626Z,12.37
2019-05-06T08:29:33.031Z,12.31
2019-05-06T08:30:32.388Z,12.17
2019-05-06T08:31:32.736Z,12.28
2019-05-06T08:32:32.168Z,12.42
2019-05-06T08:33:32.767Z,12.31
2019-05-06T08:34:33.958Z,12.32
2019-05-06T08:35:33.163Z,12.29
2019-05-06T08:36:32.924Z,12.23
2019-05-06T08:37:32.204Z,12.24
2019-05-06T08:38:32.685Z,12.27
2019-05-06T08:39:32.638Z,12.27
2019-05-06T08:40:32.229Z,12.24
2019-05-06T08:41:33.204Z,12.31
2019-05-06T08:42:32.938Z,12.05
2019-05-06T08:43:32.661Z,11.98
2019-05-06T08:44:32.298Z,11.83
2019-05-06T08:45:32.472Z,11.86
2019-05-06T08:46:32.857Z,11.70
2019-05-06T08:47:32.991Z,11.49
2019-05-06T08:48:32.492Z,11.51
2019-05-06T08:49:32.246Z,11.42
2019-05-06T08:50:32.590Z,11.52
2019-05-06T08:51:33.166Z,11.54
2019-05-06T08:52:32.366Z,11.46
2019-05-06T08:53:32.951Z,11.54
2019-05-06T08:54:32.542Z,11.42
2019-05-06T08:55:32.691Z,11.44
2019-05-06T08:56:32.531Z,11.36
2019-05-06T08:57:32.574Z,11.28
2019-05-06T08:58:32.618Z,11.44
2019-05-06T08:59:32.654Z,11.57
2019-05-06T09:00:32.698Z,11.64
2019-05-06T09:01:32.823Z,11.79
2019-05-06T09:02:32.780Z,12.04
2019-05-06T09:03:32.849Z,12.14
2019-05-06T09:04:32.868Z,12.29
2019-05-06T09:05:33.160Z,12.24
2019-05-06T09:06:34.372Z,12.37
2019-05-06T09:07:32.990Z,12.37
2019-05-06T09:08:33.043Z,12.45
2019-05-06T09:09:33.075Z,12.47
2019-05-06T09:10:33.113Z,12.60
2019-05-06T09:11:33.153Z,12.67
2019-05-06T09:12:33.195Z,12.75
2019-05-06T09:13:33.245Z,12.86
2019-05-06T09:14:33.279Z,12.92
2019-05-06T09:15:33.337Z,13.04
2019-05-06T09:16:33.369Z,13.10
2019-05-06T09:17:33.403Z,13.25
2019-05-06T09:18:33.447Z,13.36
2019-05-06T09:19:33.487Z,13.52
2019-05-06T09:20:33.531Z,13.70
2019-05-06T09:21:33.774Z,13.62
2019-05-06T09:22:33.616Z,13.77
2019-05-06T09:23:33.656Z,13.87
2019-05-06T09:24:33.697Z,13.88
2019-05-06T09:25:33.741Z,13.85
2019-05-06T09:26:33.783Z,13.85
2019-05-06T09:27:33.824Z,13.67
2019-05-06T09:28:34.065Z,13.59
2019-05-06T09:29:33.912Z,13.54
2019-05-06T09:30:33.963Z,13.66
2019-05-06T09:31:33.995Z,13.54
2019-05-06T09:32:36.037Z,13.42
2019-05-06T09:33:34.130Z,13.32
2019-05-06T09:34:34.126Z,13.23
2019-05-06T09:35:34.166Z,13.25
2019-05-06T09:36:43.858Z,13.20
2019-05-06T09:37:34.251Z,13.14
2019-05-06T09:38:34.295Z,13.28
2019-05-06T09:39:34.337Z,13.28
2019-05-06T09:40:34.378Z,13.41
2019-05-06T09:41:34.445Z,13.60
2019-05-06T09:42:34.466Z,13.64
2019-05-06T09:43:34.511Z,13.88
2019-05-06T09:44:34.561Z,13.88
2019-05-06T09:45:34.601Z,13.96
2019-05-06T09:46:34.644Z,13.87
2019-05-06T09:47:34.779Z,14.02
2019-05-06T09:48:34.727Z,13.97
2019-05-06T09:49:34.773Z,14.00
2019-05-06T09:50:34.820Z,14.12
2019-05-06T09:51:34.852Z,14.14
2019-05-06T09:52:34.893Z,14.17
2019-05-06T09:53:34.936Z,14.07
2019-05-06T09:54:34.984Z,14.14
2019-05-06T09:55:35.027Z,14.27
2019-05-06T09:56:35.065Z,14.39
2019-05-06T09:57:35.107Z,14.65
2019-05-06T09:58:35.163Z,14.81
2019-05-06T09:59:35.198Z,15.06
2019-05-06T10:00:35.236Z,15.11
2019-05-06T10:01:35.278Z,15.27
2019-05-06T10:02:35.324Z,15.36
2019-05-06T10:03:35.368Z,15.46
2019-05-06T10:04:35.410Z,15.59
2019-05-06T10:05:35.455Z,15.68
2019-05-06T10:06:35.500Z,15.80
2019-05-06T10:07:35.541Z,15.84
2019-05-06T10:08:35.584Z,15.78
2019-05-06T10:09:35.626Z,15.89
2019-05-06T10:10:35.721Z,16.01
2019-05-06T10:11:35.714Z,15.90
2019-05-06T10:12:35.761Z,15.64
2019-05-06T10:13:35.803Z,15.69
2019-05-06T10:14:35.846Z,15.67
2019-05-06T10:15:35.901Z,15.72
2019-05-06T10:16:35.935Z,15.87
2019-05-06T10:17:35.980Z,15.97
2019-05-06T10:18:36.023Z,16.04
2019-05-06T10:19:36.066Z,16.01
2019-05-06T10:20:36.111Z,15.94
2019-05-06T10:21:36.159Z,15.90
2019-05-06T10:22:36.200Z,15.84
2019-05-06T10:23:36.248Z,15.57
2019-05-06T10:24:36.290Z,15.57
2019-05-06T10:25:36.334Z,15.56
2019-05-06T10:26:36.382Z,15.47
2019-05-06T10:27:36.420Z,15.29
2019-05-06T10:28:36.466Z,15.19
2019-05-06T10:29:36.516Z,15.17
2019-05-06T10:30:36.555Z,15.17
2019-05-06T10:31:36.651Z,15.06
2019-05-06T10:32:36.643Z,15.03
2019-05-06T10:33:36.689Z,14.96
2019-05-06T10:34:36.731Z,14.84
2019-05-06T10:35:36.776Z,14.80
2019-05-06T10:36:36.826Z,14.61
2019-05-06T10:37:36.864Z,14.43
2019-05-06T10:38:36.908Z,14.24
2019-05-06T10:39:36.953Z,14.14
2019-05-06T10:40:48.652Z,14.10
2019-05-06T10:41:37.050Z,14.00
2019-05-06T10:42:37.087Z,14.03
2019-05-06T10:43:37.130Z,14.12
2019-05-06T10:44:37.175Z,14.00
2019-05-06T10:45:37.218Z,14.24
2019-05-06T10:46:37.264Z,14.20
2019-05-06T10:47:37.309Z,14.09
2019-05-06T10:48:37.349Z,14.24
2019-05-06T10:49:37.396Z,14.20
2019-05-06T10:50:37.439Z,14.17
2019-05-06T10:51:37.490Z,14.21
2019-05-06T10:52:37.530Z,14.18
2019-05-06T10:53:37.567Z,14.22
2019-05-06T10:54:37.613Z,14.17
2019-05-06T10:55:37.656Z,14.20
2019-05-06T10:56:49.806Z,14.14
2019-05-06T10:57:40.321Z,13.97
2019-05-06T10:58:37.796Z,13.78
2019-05-06T10:59:37.832Z,13.67
2019-05-06T11:00:37.873Z,13.41
2019-05-06T11:01:37.924Z,13.39
2019-05-06T11:02:37.962Z,13.38
2019-05-06T11:03:38.003Z,13.36
2019-05-06T11:04:38.045Z,13.30
2019-05-06T11:10:40.432Z,13.22
2019-05-06T11:11:35.089Z,13.23
2019-05-06T11:12:32.614Z,13.23
2019-05-06T11:13:32.233Z,13.19
2019-05-06T11:14:32.904Z,13.23
2019-05-06T11:15:32.986Z,13.22
2019-05-06T11:16:33.127Z,13.23
2019-05-06T11:17:32.620Z,13.12
2019-05-06T11:18:33.492Z,13.12
2019-05-06T11:19:33.064Z,13.01
2019-05-06T11:20:33.476Z,12.97
2019-05-06T11:21:32.860Z,12.85
2019-05-06T11:22:32.711Z,12.92
2019-05-06T11:23:33.561Z,13.00
2019-05-06T11:24:32.658Z,13.10
2019-05-06T11:25:32.330Z,13.11
2019-05-06T11:26:31.406Z,13.25
2019-05-06T11:27:32.673Z,13.36
2019-05-06T11:28:34.864Z,13.45
2019-05-06T11:29:33.956Z,13.52
2019-05-06T11:30:33.149Z,13.63
2019-05-06T11:31:33.214Z,13.64
2019-05-06T11:32:33.042Z,13.70
2019-05-06T11:33:32.925Z,13.84
2019-05-06T11:34:32.581Z,13.92
2019-05-06T11:35:32.565Z,13.96
2019-05-06T11:36:32.314Z,14.02
2019-05-06T11:37:43.765Z,13.92
2019-05-06T11:38:32.293Z,13.97
2019-05-06T11:39:32.275Z,14.02
2019-05-06T11:40:33.225Z,14.04
2019-05-06T11:41:32.294Z,14.20
2019-05-06T11:42:35.668Z,14.21
2019-05-06T11:43:32.537Z,14.35
2019-05-06T11:44:32.413Z,14.40
2019-05-06T11:45:32.319Z,14.55
2019-05-06T11:46:32.315Z,14.46
2019-05-06T11:47:32.651Z,14.28
2019-05-06T11:48:32.801Z,14.33
2019-05-06T11:49:32.740Z,14.21
2019-05-06T11:50:33.434Z,14.14
2019-05-06T11:51:33.056Z,13.97
2019-05-06T11:52:34.672Z,14.02
2019-05-06T11:53:32.709Z,14.02
2019-05-06T11:54:33.734Z,13.95
2019-05-06T11:55:38.447Z,13.89
2019-05-06T11:56:47.592Z,13.81
2019-05-06T11:57:32.737Z,13.85
2019-05-06T11:58:32.780Z,13.87
2019-05-06T11:59:32.828Z,13.92
2019-05-06T12:00:35.789Z,14.14
2019-05-06T12:01:33.090Z,14.15
2019-05-06T12:02:33.135Z,14.15
2019-05-06T12:03:33.008Z,14.00
2019-05-06T12:04:33.059Z,13.88
2019-05-06T12:05:33.106Z,13.91
2019-05-06T12:06:33.274Z,13.81
2019-05-06T12:07:33.400Z,13.78
2019-05-06T12:08:33.220Z,13.84
2019-05-06T12:09:33.537Z,13.87
2019-05-06T12:10:33.297Z,13.85
2019-05-06T12:11:33.347Z,13.87
2019-05-06T12:12:33.382Z,13.89
2019-05-06T12:13:33.842Z,13.89
2019-05-06T12:14:33.468Z,13.78
2019-05-06T12:15:33.513Z,13.79
2019-05-06T12:16:33.750Z,13.64
2019-05-06T12:17:33.597Z,13.77
2019-05-06T12:18:33.644Z,13.70
2019-05-06T12:19:33.683Z,13.64
2019-05-06T12:20:33.732Z,13.67
2019-05-06T12:21:33.770Z,13.69
2019-05-06T12:22:33.813Z,13.69
2019-05-06T12:23:35.285Z,13.67
2019-05-06T12:24:33.899Z,13.70
2019-05-06T12:25:33.942Z,13.66
2019-05-06T12:26:33.983Z,13.70
2019-05-06T12:27:34.034Z,13.77
2019-05-06T12:28:34.071Z,13.75
2019-05-06T12:29:34.122Z,13.71
2019-05-06T12:30:34.162Z,13.63
2019-05-06T12:31:34.201Z,13.57
2019-05-06T12:32:34.247Z,13.32
2019-05-06T12:33:34.290Z,13.55
2019-05-06T12:34:34.337Z,13.59
2019-05-06T12:35:34.379Z,13.64
2019-05-06T12:36:34.414Z,13.73
2019-05-06T12:37:34.460Z,13.88
2019-05-06T12:38:34.501Z,13.92
2019-05-06T12:39:34.543Z,13.95
2019-05-06T12:40:34.586Z,14.09
2019-05-06T12:41:34.629Z,14.18
2019-05-06T12:42:34.677Z,14.32
2019-05-06T12:43:34.724Z,14.54
2019-05-06T12:44:34.759Z,14.68
2019-05-06T12:45:34.808Z,14.83
2019-05-06T12:46:34.845Z,14.92
2019-05-06T12:47:34.889Z,14.88
2019-05-06T12:48:34.935Z,15.03
2019-05-06T12:49:34.979Z,14.99
2019-05-06T12:50:35.016Z,15.02
2019-05-06T12:51:35.057Z,15.13
2019-05-06T12:52:35.101Z,15.39
2019-05-06T12:53:35.157Z,15.38
2019-05-06T12:54:35.247Z,15.50
2019-05-06T12:55:35.232Z,15.57
2019-05-06T12:56:35.279Z,15.67
2019-05-06T12:57:35.320Z,15.86
2019-05-06T12:58:35.367Z,15.97
2019-05-06T12:59:35.410Z,15.83
2019-05-06T13:00:35.448Z,15.97
2019-05-06T13:01:35.495Z,15.96
2019-05-06T13:02:35.539Z,15.84
2019-05-06T13:03:35.582Z,15.84
2019-05-06T13:04:49.496Z,15.64
2019-05-06T13:05:35.667Z,15.64
2019-05-06T13:06:35.712Z,15.78
2019-05-06T13:07:35.758Z,15.75
2019-05-06T13:08:52.248Z,15.84
2019-05-06T13:09:35.852Z,15.93
2019-05-06T13:10:35.946Z,16.07